Time,TemperatureF,DewpointF,PressureIn,WindDirection,WindDirectionDegrees,WindSpeedMPH,WindSpeedGustMPH,Humidity,HourlyPrecipIn,Conditions,Clouds,dailyrainin,SoftwareType,DateUTC
2013-09-19 00:02:00,74.8,67.6,29.95,North,0,0.0,0.0,78,0.00,,,0.00,WUHU21623XXSP,2013-09-19 05:02:00,
2013-09-19 00:07:00,74.8,67.6,29.96,North,0,0.0,0.0,78,0.00,,,0.00,WUHU21623XXSP,2013-09-19 05:07:00,
2013-09-19 00:12:00,75.0,67.7,29.96,North,0,0.0,0.0,78,0.00,,,0.00,WUHU21623XXSP,2013-09-19 05:12:00,
2013-09-19 00:17:00,74.8,67.6,29.96,North,0,0.0,0.0,78,0.00,,,0.00,WUHU21623XXSP,2013-09-19 05:17:00,
2013-09-19 00:22:00,74.8,67.6,29.96,North,0,0.0,0.0,78,0.00,,,0.00,WUHU21623XXSP,2013-09-19 05:22:00,
2013-09-19 00:27:00,74.8,67.6,29.96,North,0,0.0,0.0,78,0.00,,,0.00,WUHU21623XXSP,2013-09-19 05:27:00,
2013-09-19 00:32:00,74.7,67.8,29.96,North,0,0.0,0.0,79,0.00,,,0.00,WUHU21623XXSP,2013-09-19 05:32:00,
2013-09-19 00:37:00,74.5,67.6,29.96,North,0,0.0,0.0,79,0.00,,,0.00,WUHU21623XXSP,2013-09-19 05:37:00,
2013-09-19 00:42:00,74.5,67.6,29.96,North,0,0.0,0.0,79,0.00,,,0.00,WUHU21623XXSP,2013-09-19 05:42:00,
2013-09-19 00:47:00,74.7,67.6,29.96,North,0,0.0,0.0,79,0.00,,,0.00,WUHU21623XXSP,2013-09-19 05:47:00,
2013-09-19 00:52:00,74.8,68.0,29.96,North,0,0.0,0.0,79,0.00,,,0.00,WUHU21623XXSP,2013-09-19 05:52:00,
2013-09-19 00:57:00,74.8,68.0,29.96,North,0,0.0,0.0,79,0.00,,,0.00,WUHU21623XXSP,2013-09-19 05:57:00,
2013-09-19 01:02:00,74.8,68.0,29.96,North,0,0.0,0.0,79,0.00,,,0.00,WUHU21623XXSP,2013-09-19 06:02:00,
2013-09-19 01:08:00,74.8,68.0,29.96,North,0,0.0,0.0,79,0.00,,,0.00,WUHU21623XXSP,2013-09-19 06:08:00,
2013-09-19 01:13:00,74.8,68.0,29.96,North,0,0.0,0.0,79,0.00,,,0.00,WUHU21623XXSP,2013-09-19 06:13:00,
2013-09-19 01:18:00,74.8,68.0,29.96,North,0,0.0,0.0,79,0.00,,,0.00,WUHU21623XXSP,2013-09-19 06:18:00,
2013-09-19 01:23:00,74.8,68.0,29.96,North,0,0.0,0.0,79,0.00,,,0.00,WUHU21623XXSP,2013-09-19 06:23:00,
2013-09-19 01:28:00,74.7,67.8,29.96,North,0,0.0,0.0,79,0.00,,,0.00,WUHU21623XXSP,2013-09-19 06:28:00,
2013-09-19 01:33:00,74.7,68.2,29.97,North,0,0.0,0.0,80,0.00,,,0.00,WUHU21623XXSP,2013-09-19 06:33:00,
2013-09-19 01:38:00,74.8,68.4,29.97,North,0,0.0,0.0,80,0.00,,,0.00,WUHU21623XXSP,2013-09-19 06:38:00,
2013-09-19 01:43:00,74.8,68.0,29.96,North,0,0.0,0.0,79,0.00,,,0.00,WUHU21623XXSP,2013-09-19 06:43:00,
2013-09-19 01:48:00,74.8,68.0,29.96,North,0,0.0,0.0,79,0.00,,,0.00,WUHU21623XXSP,2013-09-19 06:48:00,
2013-09-19 01:53:00,74.8,68.0,29.96,North,0,0.0,0.0,79,0.00,,,0.00,WUHU21623XXSP,2013-09-19 06:53:00,
2013-09-19 01:58:00,74.8,68.0,29.96,North,0,0.0,0.0,79,0.00,,,0.00,WUHU21623XXSP,2013-09-19 06:58:00,
2013-09-19 02:03:00,74.8,68.0,29.96,North,0,0.0,0.0,79,0.00,,,0.00,WUHU21623XXSP,2013-09-19 07:03:00,
2013-09-19 02:08:00,74.8,68.0,29.96,North,0,0.0,0.0,79,0.00,,,0.00,WUHU21623XXSP,2013-09-19 07:08:00,
2013-09-19 02:13:00,74.8,68.4,29.96,North,0,0.0,0.0,80,0.00,,,0.00,WUHU21623XXSP,2013-09-19 07:13:00,
2013-09-19 02:18:00,74.8,68.0,29.96,North,0,0.0,0.0,79,0.00,,,0.00,WUHU21623XXSP,2013-09-19 07:18:00,
2013-09-19 02:23:00,74.8,68.4,29.96,North,0,0.0,0.0,80,0.00,,,0.00,WUHU21623XXSP,2013-09-19 07:23:00,
2013-09-19 02:28:00,74.8,68.0,29.96,North,0,0.0,0.0,79,0.00,,,0.00,WUHU21623XXSP,2013-09-19 07:28:00,
2013-09-19 02:33:00,74.8,68.0,29.96,North,0,0.0,0.0,79,0.00,,,0.00,WUHU21623XXSP,2013-09-19 07:33:00,
2013-09-19 02:38:00,74.8,68.0,29.96,North,0,0.0,0.0,79,0.00,,,0.00,WUHU21623XXSP,2013-09-19 07:38:00,
2013-09-19 02:43:00,75.0,68.1,29.96,North,0,0.0,0.0,79,0.00,,,0.00,WUHU21623XXSP,2013-09-19 07:43:00,
2013-09-19 10:11:00,79.5,68.9,29.97,North,0,0.0,0.0,70,0.00,,,0.00,WUHU21623XXSP,2013-09-19 15:11:00,
2013-09-19 10:16:00,79.9,69.3,29.97,North,0,0.0,0.0,70,0.00,,,0.00,WUHU21623XXSP,2013-09-19 15:16:00,
2013-09-19 10:21:00,80.4,68.9,29.97,North,0,0.0,0.0,68,0.00,,,0.00,WUHU21623XXSP,2013-09-19 15:21:00,
2013-09-19 10:26:00,80.4,68.9,29.97,North,0,0.0,0.0,68,0.00,,,0.00,WUHU21623XXSP,2013-09-19 15:26:00,
2013-09-19 10:31:00,80.4,68.9,29.98,North,0,0.0,0.0,68,0.00,,,0.00,WUHU21623XXSP,2013-09-19 15:31:00,
2013-09-19 10:36:00,80.4,69.1,29.97,North,0,0.0,0.0,67,0.00,,,0.00,WUHU21623XXSP,2013-09-19 15:36:00,
2013-09-19 10:41:00,80.8,69.2,29.97,North,0,0.0,0.0,68,0.00,,,0.00,WUHU21623XXSP,2013-09-19 15:41:00,
2013-09-19 10:46:00,80.8,69.2,29.97,North,0,0.0,0.0,68,0.00,,,0.00,WUHU21623XXSP,2013-09-19 15:46:00,
2013-09-19 10:51:00,82.0,69.5,29.97,North,0,0.0,0.0,66,0.00,,,0.00,WUHU21623XXSP,2013-09-19 15:51:00,
2013-09-19 10:56:00,82.8,69.7,29.97,North,0,0.0,0.0,65,0.00,,,0.00,WUHU21623XXSP,2013-09-19 15:56:00,
2013-09-19 11:01:00,83.1,69.6,29.97,North,0,0.0,0.0,64,0.00,,,0.00,WUHU21623XXSP,2013-09-19 16:01:00,
2013-09-19 11:06:00,83.5,69.5,29.97,North,0,0.0,0.0,63,0.00,,,0.00,WUHU21623XXSP,2013-09-19 16:06:00,
2013-09-19 11:11:00,83.8,69.1,29.97,North,0,0.0,0.0,62,0.00,,,0.00,WUHU21623XXSP,2013-09-19 16:11:00,
2013-09-19 11:16:00,84.0,69.2,29.97,North,0,0.0,0.0,61,0.00,,,0.00,WUHU21623XXSP,2013-09-19 16:16:00,
2013-09-19 11:21:00,84.0,69.2,29.97,North,0,0.0,0.0,61,0.00,,,0.00,WUHU21623XXSP,2013-09-19 16:21:00,
2013-09-19 11:26:00,84.0,69.2,29.97,North,0,0.0,0.0,61,0.00,,,0.00,WUHU21623XXSP,2013-09-19 16:26:00,
2013-09-19 11:31:00,84.0,69.2,29.97,North,0,0.0,0.0,61,0.00,,,0.00,WUHU21623XXSP,2013-09-19 16:31:00,
2013-09-19 11:36:00,84.4,69.5,29.96,North,0,0.0,0.0,61,0.00,,,0.00,WUHU21623XXSP,2013-09-19 16:36:00,
2013-09-19 11:41:00,84.2,69.3,29.97,North,0,0.0,0.0,61,0.00,,,0.00,WUHU21623XXSP,2013-09-19 16:41:00,
2013-09-19 11:46:00,84.2,68.9,29.97,North,0,0.0,0.0,60,0.00,,,0.00,WUHU21623XXSP,2013-09-19 16:46:00,
2013-09-19 11:51:00,84.6,69.2,29.97,North,0,0.0,0.0,60,0.00,,,0.00,WUHU21623XXSP,2013-09-19 16:51:00,
2013-09-19 11:56:00,85.1,69.2,29.97,North,0,0.0,0.0,59,0.00,,,0.00,WUHU21623XXSP,2013-09-19 16:56:00,
2013-09-19 12:01:00,85.6,69.7,29.97,North,0,0.0,0.0,59,0.00,,,0.00,WUHU21623XXSP,2013-09-19 17:01:00,
2013-09-19 12:06:00,86.5,70.0,29.97,North,0,0.0,0.0,58,0.00,,,0.00,WUHU21623XXSP,2013-09-19 17:06:00,
2013-09-19 12:11:00,86.7,70.0,29.97,North,0,0.0,0.0,58,0.00,,,0.00,WUHU21623XXSP,2013-09-19 17:11:00,
2013-09-19 12:16:00,87.1,70.0,29.96,North,0,0.0,0.0,57,0.00,,,0.00,WUHU21623XXSP,2013-09-19 17:16:00,
2013-09-19 12:21:00,87.3,70.2,29.96,North,0,0.0,0.0,57,0.00,,,0.00,WUHU21623XXSP,2013-09-19 17:21:00,
2013-09-19 12:26:00,87.6,70.0,29.96,North,0,0.0,0.0,56,0.00,,,0.00,WUHU21623XXSP,2013-09-19 17:26:00,
2013-09-19 12:31:00,88.2,69.9,29.95,North,0,0.0,0.0,55,0.00,,,0.00,WUHU21623XXSP,2013-09-19 17:31:00,
2013-09-19 12:36:00,88.2,69.9,29.95,North,0,0.0,0.0,55,0.00,,,0.00,WUHU21623XXSP,2013-09-19 17:36:00,
2013-09-19 12:41:00,88.5,70.8,29.95,North,0,0.0,0.0,56,0.00,,,0.00,WUHU21623XXSP,2013-09-19 17:41:00,
2013-09-19 12:46:00,89.4,71.1,29.95,North,0,0.0,0.0,55,0.00,,,0.00,WUHU21623XXSP,2013-09-19 17:46:00,
2013-09-19 12:51:00,89.4,70.5,29.95,North,0,0.0,0.0,54,0.00,,,0.00,WUHU21623XXSP,2013-09-19 17:51:00,
2013-09-19 12:56:00,89.6,70.7,29.95,North,0,0.0,0.0,54,0.00,,,0.00,WUHU21623XXSP,2013-09-19 17:56:00,
2013-09-19 13:01:00,89.8,70.3,29.95,North,0,0.0,0.0,53,0.00,,,0.00,WUHU21623XXSP,2013-09-19 18:01:00,
2013-09-19 13:06:00,90.0,70.5,29.95,North,0,0.0,0.0,53,0.00,,,0.00,WUHU21623XXSP,2013-09-19 18:06:00,
2013-09-19 13:11:00,90.5,71.0,29.95,North,0,0.0,0.0,53,0.00,,,0.00,WUHU21623XXSP,2013-09-19 18:11:00,
2013-09-19 13:16:00,91.0,70.9,29.95,North,0,0.0,0.0,52,0.00,,,0.00,WUHU21623XXSP,2013-09-19 18:16:00,
2013-09-19 13:21:00,91.2,71.1,29.95,North,0,0.0,0.0,52,0.00,,,0.00,WUHU21623XXSP,2013-09-19 18:21:00,
2013-09-19 13:26:00,91.2,71.1,29.94,North,0,0.0,0.0,52,0.00,,,0.00,WUHU21623XXSP,2013-09-19 18:26:00,
2013-09-19 13:31:00,90.9,69.7,29.94,North,0,0.0,0.0,50,0.00,,,0.00,WUHU21623XXSP,2013-09-19 18:31:00,
2013-09-19 13:36:00,90.3,69.2,29.94,North,0,0.0,0.0,50,0.00,,,0.00,WUHU21623XXSP,2013-09-19 18:36:00,
2013-09-19 13:41:00,90.3,70.3,29.94,North,0,0.0,0.0,52,0.00,,,0.00,WUHU21623XXSP,2013-09-19 18:41:00,
2013-09-19 13:46:00,89.8,69.6,29.94,North,0,0.0,0.0,51,0.00,,,0.00,WUHU21623XXSP,2013-09-19 18:46:00,
2013-09-19 13:51:00,89.4,68.9,29.94,North,0,0.0,0.0,51,0.00,,,0.00,WUHU21623XXSP,2013-09-19 18:51:00,
2013-09-19 13:56:00,89.4,69.5,29.94,North,0,0.0,0.0,52,0.00,,,0.00,WUHU21623XXSP,2013-09-19 18:56:00,
2013-09-19 14:01:00,89.1,69.7,29.93,North,0,0.0,0.0,53,0.00,,,0.00,WUHU21623XXSP,2013-09-19 19:01:00,
2013-09-19 23:25:00,69.6,65.2,29.94,North,0,0.0,0.0,86,0.00,,,0.00,WUHU21623XXSP,2013-09-20 04:25:00,
2013-09-19 23:30:00,70.2,65.7,29.94,North,0,0.0,0.0,87,0.00,,,0.00,WUHU21623XXSP,2013-09-20 04:30:00,
2013-09-19 23:35:00,70.5,66.4,29.96,North,0,0.0,0.0,87,0.00,,,0.00,WUHU21623XXSP,2013-09-20 04:35:00,
2013-09-19 23:40:00,70.5,66.4,29.94,North,0,0.0,0.0,87,0.00,,,0.00,WUHU21623XXSP,2013-09-20 04:40:00,
2013-09-19 23:45:00,70.3,65.9,29.95,North,0,0.0,0.0,86,0.00,,,0.00,WUHU21623XXSP,2013-09-20 04:45:00,
2013-09-19 23:47:00,70.3,65.9,29.94,North,0,0.0,0.0,86,0.00,,,0.00,WUHU21623XXSP,2013-09-20 04:47:00,
2013-09-19 23:52:00,70.2,66.1,29.95,North,0,0.0,0.0,87,0.00,,,0.00,WUHU21623XXSP,2013-09-20 04:52:00,
2013-09-19 23:55:00,70.2,66.1,29.95,North,0,0.0,0.0,87,0.00,,,0.00,WUHU21623XXSP,2013-09-20 04:55:00,